createdAt,value
2023-02-15T00:00:18.927Z,101508.69
2023-02-15T00:02:47.300Z,101508.81
2023-02-15T00:05:15.659Z,101506.50
2023-02-15T00:07:45.350Z,101511.72
2023-02-15T00:10:13.676Z,101515.31
2023-02-15T00:12:41.998Z,101510.09
2023-02-15T00:15:12.384Z,101506.81
2023-02-15T00:17:40.732Z,101501.72
2023-02-15T00:20:10.440Z,101496.63
2023-02-15T00:22:39.511Z,101491.69
2023-02-15T00:25:09.474Z,101492.66
2023-02-15T00:27:37.810Z,101493.59
2023-02-15T00:30:07.828Z,101499.66
2023-02-15T00:32:36.269Z,101501.47
2023-02-15T00:35:04.756Z,101501.47
2023-02-15T00:37:33.084Z,101497.03
2023-02-15T00:40:01.545Z,101493.59
2023-02-15T00:42:33.271Z,101494.44
2023-02-15T00:45:01.589Z,101491.81
2023-02-15T00:47:30.654Z,101487.41
2023-02-15T00:49:59.028Z,101487.41
2023-02-15T00:52:27.371Z,101484.81
2023-02-15T00:54:55.674Z,101484.13
2023-02-15T00:57:23.988Z,101489.19
2023-02-15T00:59:53.640Z,101489.34
2023-02-15T01:02:21.997Z,101497.91
2023-02-15T01:04:50.322Z,101488.25
2023-02-15T01:07:18.824Z,101483.00
2023-02-15T01:09:47.125Z,101481.22
2023-02-15T01:12:15.604Z,101478.59
2023-02-15T01:14:44.134Z,101477.91
2023-02-15T01:17:13.762Z,101472.66
2023-02-15T01:19:42.161Z,101476.09
2023-02-15T01:22:10.523Z,101483.94
2023-02-15T01:24:38.885Z,101475.28
2023-02-15T01:27:07.203Z,101465.63
2023-02-15T01:29:35.524Z,101465.63
2023-02-15T01:32:04.436Z,101463.00
2023-02-15T01:34:34.346Z,101471.72
2023-02-15T01:37:02.750Z,101466.59
2023-02-15T01:39:31.096Z,101465.63
2023-02-15T01:41:59.375Z,101465.63
2023-02-15T01:44:51.842Z,101464.97
2023-02-15T01:47:30.210Z,101454.63
2023-02-15T01:50:09.028Z,101454.63
2023-02-15T01:52:43.997Z,101458.22
2023-02-15T01:55:14.009Z,101451.34
2023-02-15T01:57:43.131Z,101453.28
2023-02-15T02:00:12.935Z,101454.94
2023-02-15T02:02:41.891Z,101460.19
2023-02-15T02:05:11.682Z,101466.22
2023-02-15T02:07:43.784Z,101466.34
2023-02-15T02:10:15.612Z,101454.13
2023-02-15T02:12:46.262Z,101455.06
2023-02-15T02:15:15.829Z,101457.56
2023-02-15T02:18:00.774Z,101449.00
2023-02-15T02:20:55.885Z,101447.38
2023-02-15T02:23:40.742Z,101449.31
2023-02-15T02:27:03.404Z,101446.03
2023-02-15T02:30:27.673Z,101438.31
2023-02-15T02:33:30.398Z,101434.22
2023-02-15T02:36:09.087Z,101437.47
2023-02-15T02:38:54.767Z,101432.25
2023-02-15T02:41:33.115Z,101430.44
2023-02-15T02:44:15.000Z,101432.25
2023-02-15T02:46:52.794Z,101433.22
2023-02-15T02:49:33.356Z,101420.28
2023-02-15T02:52:03.178Z,101422.75
2023-02-15T02:54:33.201Z,101412.28
2023-02-15T02:57:06.482Z,101420.13
2023-02-15T02:59:38.905Z,101420.13
2023-02-15T03:02:14.055Z,101418.50
2023-02-15T03:04:48.565Z,101404.56
2023-02-15T03:07:23.009Z,101398.50
2023-02-15T03:09:54.389Z,101399.03
2023-02-15T03:12:26.446Z,101399.84
2023-02-15T03:15:04.409Z,101409.78
2023-02-15T03:17:36.542Z,101399.19
2023-02-15T03:20:12.182Z,101394.94
2023-02-15T03:22:48.074Z,101401.94
2023-02-15T03:25:22.216Z,101403.75
2023-02-15T03:27:55.523Z,101400.19
2023-02-15T03:30:26.295Z,101401.81
2023-02-15T03:33:01.209Z,101388.84
2023-02-15T03:35:41.346Z,101397.41
2023-02-15T03:38:11.336Z,101407.06
2023-02-15T03:41:00.529Z,101406.38
2023-02-15T03:43:45.370Z,101414.38
2023-02-15T03:46:20.281Z,101423.03
2023-02-15T03:48:54.433Z,101434.34
2023-02-15T03:51:37.444Z,101436.81
2023-02-15T03:54:10.201Z,101434.03
2023-02-15T03:56:40.639Z,101434.22
2023-02-15T03:59:26.545Z,101435.69
2023-02-15T04:02:09.598Z,101424.41
2023-02-15T04:04:40.216Z,101423.41
2023-02-15T04:07:11.091Z,101428.66
2023-02-15T04:09:57.107Z,101424.28
2023-02-15T04:12:25.964Z,101406.06
2023-02-15T04:15:11.897Z,101411.31
2023-02-15T04:17:40.575Z,101405.41
2023-02-15T04:20:27.925Z,101413.09
2023-02-15T04:23:15.276Z,101405.41
2023-02-15T04:25:43.581Z,101395.88
2023-02-15T04:28:11.925Z,101403.75
2023-02-15T04:30:40.259Z,101407.19
2023-02-15T04:33:08.547Z,101400.31
2023-02-15T04:35:36.827Z,101407.19
2023-02-15T04:38:06.506Z,101406.38
2023-02-15T04:40:34.773Z,101396.72
2023-02-15T04:43:03.084Z,101406.38
2023-02-15T04:45:31.381Z,101398.50
2023-02-15T04:47:59.783Z,101397.56
2023-02-15T04:50:28.130Z,101399.31
2023-02-15T04:52:57.042Z,101392.97
2023-02-15T04:55:27.931Z,101388.72
2023-02-15T04:57:56.230Z,101380.88
2023-02-15T05:00:24.742Z,101379.25
2023-02-15T05:02:53.048Z,101376.63
2023-02-15T05:05:21.415Z,101381.84
2023-02-15T05:07:49.733Z,101382.00
2023-02-15T05:10:18.314Z,101382.81
2023-02-15T05:12:48.079Z,101382.81
2023-02-15T05:15:16.556Z,101379.25
2023-02-15T05:17:44.896Z,101383.63
2023-02-15T05:20:13.700Z,101375.78
2023-02-15T05:22:42.385Z,101380.19
2023-02-15T05:25:29.149Z,101385.13
2023-02-15T05:28:16.396Z,101378.38
2023-02-15T05:30:44.977Z,101368.78
2023-02-15T05:33:13.393Z,101374.00
2023-02-15T05:35:41.757Z,101381.69
2023-02-15T05:38:10.128Z,101383.34
2023-02-15T05:40:38.432Z,101383.22
2023-02-15T05:43:08.164Z,101379.75
2023-02-15T05:45:36.530Z,101384.84
2023-02-15T05:48:05.106Z,101385.81
2023-02-15T05:50:33.438Z,101389.09
2023-02-15T05:53:01.774Z,101392.69
2023-02-15T05:55:30.124Z,101391.06
2023-02-15T05:57:58.447Z,101401.53
2023-02-15T06:00:28.135Z,101399.03
2023-02-15T06:02:56.478Z,101398.22
2023-02-15T06:05:24.858Z,101388.03
2023-02-15T06:07:53.232Z,101387.22
2023-02-15T06:10:21.927Z,101387.22
2023-02-15T06:12:50.398Z,101405.53
2023-02-15T06:15:18.930Z,101393.44
2023-02-15T06:17:48.585Z,101404.03
2023-02-15T06:20:17.083Z,101402.41
2023-02-15T06:22:45.425Z,101401.56
2023-02-15T06:25:13.718Z,101409.59
2023-02-15T06:27:44.538Z,101399.41
2023-02-15T06:30:14.952Z,101400.34
2023-02-15T06:32:43.324Z,101404.94
2023-02-15T06:35:13.058Z,101406.03
2023-02-15T06:37:41.814Z,101413.75
2023-02-15T06:40:11.424Z,101417.47
2023-02-15T06:42:39.741Z,101435.63
2023-02-15T06:45:09.072Z,101426.44
2023-02-15T06:47:37.379Z,101429.75
2023-02-15T06:50:07.138Z,101429.34
2023-02-15T06:52:36.815Z,101423.97
2023-02-15T06:55:05.699Z,101417.94
2023-02-15T06:57:34.252Z,101436.91
2023-02-15T07:00:02.699Z,101431.53
2023-02-15T07:02:31.059Z,101428.78
2023-02-15T07:04:59.608Z,101430.41
2023-02-15T07:07:27.979Z,101426.84
2023-02-15T07:09:57.657Z,101427.50
2023-02-15T07:12:43.536Z,101437.16
2023-02-15T07:15:14.149Z,101436.34
2023-02-15T07:17:42.764Z,101443.22
2023-02-15T07:20:14.506Z,101430.94
2023-02-15T07:22:43.174Z,101424.75
2023-02-15T07:25:14.239Z,101426.41
2023-02-15T07:27:44.229Z,101428.31
2023-02-15T07:30:15.444Z,101424.88
2023-02-15T07:32:58.916Z,101428.47
2023-02-15T07:35:27.577Z,101426.84
2023-02-15T07:37:56.599Z,101427.78
2023-02-15T07:40:26.454Z,101419.94
2023-02-15T07:42:55.916Z,101426.16
2023-02-15T07:45:24.707Z,101430.56
2023-02-15T07:47:53.015Z,101432.38
2023-02-15T07:50:21.318Z,101423.81
2023-02-15T07:52:49.686Z,101417.63
2023-02-15T07:55:19.573Z,101419.28
2023-02-15T07:57:51.422Z,101409.63
2023-02-15T08:00:24.510Z,101418.00
2023-02-15T08:03:09.240Z,101417.19
2023-02-15T08:05:37.984Z,101410.97
2023-02-15T08:08:06.806Z,101399.53
2023-02-15T08:10:53.285Z,101428.19
2023-02-15T08:13:22.984Z,101399.53
2023-02-15T08:15:51.801Z,101392.50
2023-02-15T08:18:20.273Z,101393.19
2023-02-15T08:20:51.980Z,101398.59
2023-02-15T08:23:20.414Z,101407.91
2023-02-15T08:25:48.773Z,101391.56
2023-02-15T08:28:17.080Z,101406.00
2023-02-15T08:30:46.818Z,101400.59
2023-02-15T08:33:15.165Z,101403.75
2023-02-15T08:35:43.504Z,101410.66
2023-02-15T08:38:11.816Z,101396.28
2023-02-15T08:40:40.169Z,101397.94
2023-02-15T08:43:08.473Z,101389.09
2023-02-15T08:45:36.921Z,101389.91
2023-02-15T08:48:07.156Z,101379.44
2023-02-15T08:50:35.466Z,101392.69
2023-02-15T08:53:04.766Z,101388.44
2023-02-15T08:55:33.122Z,101385.81
2023-02-15T08:58:01.455Z,101383.03
2023-02-15T09:00:30.072Z,101377.00
2023-02-15T09:02:58.408Z,101372.56
2023-02-15T09:05:28.172Z,101366.22
2023-02-15T09:07:56.517Z,101368.69
2023-02-15T09:10:24.855Z,101364.25
2023-02-15T09:12:54.020Z,101357.91
2023-02-15T09:15:22.393Z,101353.50
2023-02-15T09:17:50.735Z,101355.13
2023-02-15T09:20:19.362Z,101357.63
2023-02-15T09:22:49.120Z,101357.47
2023-02-15T09:25:17.729Z,101354.84
2023-02-15T09:27:46.118Z,101358.97
2023-02-15T09:30:15.882Z,101352.91
2023-02-15T09:32:44.270Z,101352.09
2023-02-15T09:35:12.625Z,101351.28
2023-02-15T09:37:40.982Z,101341.47
2023-02-15T09:40:13.945Z,101336.91
2023-02-15T09:43:03.565Z,101338.53
2023-02-15T09:45:47.916Z,101336.91
2023-02-15T09:48:40.738Z,101342.16
2023-02-15T09:51:37.937Z,101346.41
2023-02-15T09:54:28.718Z,101349.00
2023-02-15T09:57:05.502Z,101345.94
2023-02-15T09:59:45.222Z,101349.09
2023-02-15T10:02:36.907Z,101348.78
2023-02-15T10:05:25.769Z,101338.00
2023-02-15T10:08:34.397Z,101341.31
2023-02-15T10:11:30.513Z,101345.28
2023-02-15T10:14:18.336Z,101343.19
2023-02-15T10:16:58.929Z,101338.59
2023-02-15T10:19:41.376Z,101341.91
2023-02-15T10:22:27.213Z,101345.97
2023-02-15T10:25:18.211Z,101350.91
2023-02-15T10:27:49.115Z,101355.72
2023-02-15T10:30:27.849Z,101358.03
2023-02-15T10:33:03.455Z,101359.22
2023-02-15T10:35:42.550Z,101354.66
2023-02-15T10:38:30.414Z,101366.47
2023-02-15T10:41:11.767Z,101366.16
2023-02-15T10:44:05.219Z,101365.03
2023-02-15T10:46:53.740Z,101366.53
2023-02-15T10:50:07.527Z,101357.69
2023-02-15T10:52:50.161Z,101358.19
2023-02-15T10:55:26.888Z,101371.81
2023-02-15T10:58:06.220Z,101369.06
2023-02-15T11:00:43.369Z,101360.88
2023-02-15T11:03:35.701Z,101373.16
2023-02-15T11:06:08.190Z,101363.34
2023-02-15T11:08:42.947Z,101359.91
2023-02-15T11:11:16.427Z,101362.06
2023-02-15T11:13:50.225Z,101348.78
2023-02-15T11:16:23.488Z,101347.66
2023-02-15T11:18:58.497Z,101339.66
2023-02-15T11:21:31.575Z,101337.69
2023-02-15T11:24:01.673Z,101324.41
2023-02-15T11:26:36.575Z,101319.84
2023-02-15T11:29:14.576Z,101318.03
2023-02-15T11:31:47.391Z,101317.72
2023-02-15T11:34:25.414Z,101312.50
2023-02-15T11:36:56.759Z,101318.53
2023-02-15T11:39:29.576Z,101306.44
2023-02-15T11:42:02.346Z,101294.31
2023-02-15T11:44:35.196Z,101293.31
2023-02-15T11:47:03.707Z,101291.00
2023-02-15T11:49:36.020Z,101289.88
2023-02-15T11:52:09.410Z,101293.16
2023-02-15T11:54:42.614Z,101294.13
2023-02-15T11:57:21.303Z,101285.44
2023-02-15T11:59:58.369Z,101290.38
2023-02-15T12:02:28.582Z,101291.19
2023-02-15T12:05:02.643Z,101285.34
2023-02-15T12:07:37.445Z,101277.28
2023-02-15T12:10:17.460Z,101272.56
2023-02-15T12:12:45.892Z,101279.13
2023-02-15T12:15:15.739Z,101270.25
2023-02-15T12:17:53.177Z,101267.34
2023-02-15T12:20:31.797Z,101269.63
2023-02-15T12:23:04.339Z,101250.97
2023-02-15T12:25:39.408Z,101247.22
2023-02-15T12:28:26.073Z,101249.66
2023-02-15T12:30:55.827Z,101244.91
2023-02-15T12:33:32.289Z,101245.59
2023-02-15T12:36:08.396Z,101240.16
2023-02-15T12:38:36.794Z,101244.59
2023-02-15T12:41:11.219Z,101241.97
2023-02-15T12:43:40.546Z,101245.41
2023-02-15T12:46:26.435Z,101240.97
2023-02-15T12:49:20.772Z,101240.66
2023-02-15T12:51:53.119Z,101223.81
2023-02-15T12:54:42.445Z,101228.06
2023-02-15T12:57:32.826Z,101221.84
2023-02-15T13:00:04.024Z,101221.53
2023-02-15T13:02:41.155Z,101222.19
2023-02-15T13:05:21.593Z,101218.41
2023-02-15T13:07:56.256Z,101221.69
2023-02-15T13:10:28.563Z,101226.44
2023-02-15T13:12:58.889Z,101205.47
2023-02-15T13:15:33.691Z,101202.34
2023-02-15T13:18:04.045Z,101199.38
2023-02-15T13:20:33.938Z,101202.69
2023-02-15T13:23:08.911Z,101190.06
2023-02-15T13:25:51.138Z,101193.16
2023-02-15T13:28:25.184Z,101191.19
2023-02-15T13:30:54.230Z,101202.34
2023-02-15T13:33:30.252Z,101197.09
2023-02-15T13:36:08.978Z,101208.09
2023-02-15T13:38:57.741Z,101193.00
2023-02-15T13:41:36.436Z,101197.09
2023-02-15T13:44:17.298Z,101179.38
2023-02-15T13:47:04.636Z,101173.81
2023-02-15T13:49:50.020Z,101164.13
2023-02-15T13:52:24.076Z,101164.94
2023-02-15T13:55:22.547Z,101155.06
2023-02-15T13:58:20.425Z,101154.72
2023-02-15T14:00:58.926Z,101146.53
2023-02-15T14:03:57.158Z,101153.41
2023-02-15T14:06:49.617Z,101147.81
2023-02-15T14:09:33.295Z,101151.13
2023-02-15T14:12:29.910Z,101146.50
2023-02-15T14:15:16.990Z,101154.22
2023-02-15T14:17:58.688Z,101149.47
2023-02-15T14:20:43.649Z,101141.41
2023-02-15T14:23:31.152Z,101141.41
2023-02-15T14:26:04.807Z,101140.44
2023-02-15T14:28:45.462Z,101145.69
2023-02-15T14:31:17.407Z,101144.50
2023-02-15T14:34:10.493Z,101153.22
2023-02-15T14:36:38.952Z,101153.69
2023-02-15T14:39:48.806Z,101149.44
2023-02-15T14:42:26.227Z,101149.25
2023-02-15T14:45:04.281Z,101145.47
2023-02-15T14:47:39.432Z,101132.19
2023-02-15T14:50:45.009Z,101131.19
2023-02-15T14:53:39.973Z,101129.38
2023-02-15T14:56:25.563Z,101127.41
2023-02-15T14:59:18.324Z,101122.31
2023-02-15T15:01:59.465Z,101121.69
2023-02-15T15:04:33.062Z,101117.72
2023-02-15T15:07:11.220Z,101115.91
2023-02-15T15:09:41.646Z,101113.91
2023-02-15T15:12:40.706Z,101118.34
2023-02-15T15:15:16.486Z,101121.66
2023-02-15T15:18:01.869Z,101114.59
2023-02-15T15:20:46.793Z,101125.91
2023-02-15T15:23:46.508Z,101123.47
2023-02-15T15:26:31.695Z,101116.41
2023-02-15T15:29:02.854Z,101124.09
2023-02-15T15:31:46.303Z,101113.75
2023-02-15T15:35:01.964Z,101118.22
2023-02-15T15:38:16.238Z,101117.41
2023-02-15T15:41:05.670Z,101113.75
2023-02-15T15:44:01.035Z,101118.84
2023-02-15T15:47:10.414Z,101124.09
2023-02-15T15:49:41.151Z,101119.66
2023-02-15T15:52:17.235Z,101120.66
2023-02-15T15:54:49.320Z,101130.00
2023-02-15T15:57:23.063Z,101127.38
2023-02-15T15:59:52.024Z,101122.94
2023-02-15T16:02:20.475Z,101129.00
2023-02-15T16:04:50.316Z,101119.50
2023-02-15T16:07:27.773Z,101131.16
2023-02-15T16:09:58.771Z,101126.91
2023-02-15T16:12:29.433Z,101132.16
2023-02-15T16:14:59.354Z,101133.97
2023-02-15T16:17:32.652Z,101137.56
2023-02-15T16:20:09.910Z,101146.44
2023-02-15T16:22:40.710Z,101137.56
2023-02-15T16:25:33.938Z,101137.94
2023-02-15T16:28:09.827Z,101135.47
2023-02-15T16:30:40.756Z,101134.63
2023-02-15T16:33:11.194Z,101139.22
2023-02-15T16:35:43.502Z,101147.28
2023-02-15T16:38:12.862Z,101143.03
2023-02-15T16:40:53.169Z,101131.06
2023-02-15T16:43:27.225Z,101141.75
2023-02-15T16:46:06.404Z,101150.75
2023-02-15T16:48:41.174Z,101151.09
2023-02-15T16:51:11.776Z,101146.03
2023-02-15T16:53:40.194Z,101135.03
2023-02-15T16:56:08.699Z,101148.16
2023-02-15T16:58:41.967Z,101147.50
2023-02-15T17:01:13.128Z,101151.28
2023-02-15T17:03:43.980Z,101149.16
2023-02-15T17:06:24.485Z,101153.78
2023-02-15T17:08:52.825Z,101156.72
2023-02-15T17:11:22.807Z,101135.03
2023-02-15T17:14:16.353Z,101146.06
2023-02-15T17:16:50.336Z,101138.50
2023-02-15T17:19:24.202Z,101142.94
2023-02-15T17:21:57.198Z,101144.28
2023-02-15T17:24:37.382Z,101134.91
2023-02-15T17:27:14.214Z,101147.22
2023-02-15T17:29:46.527Z,101143.09
2023-02-15T17:32:21.731Z,101135.75
2023-02-15T17:35:04.002Z,101148.06
2023-02-15T17:37:46.892Z,101145.75
2023-02-15T17:40:24.575Z,101142.47
2023-02-15T17:42:53.368Z,101148.88
2023-02-15T17:45:27.675Z,101149.03
2023-02-15T17:47:58.168Z,101158.22
2023-02-15T17:50:29.807Z,101157.41
2023-02-15T17:53:03.173Z,101158.53
2023-02-15T17:55:36.585Z,101161.34
2023-02-15T17:58:08.642Z,101151.16
2023-02-15T18:00:58.497Z,101158.41
2023-02-15T18:03:58.578Z,101158.06
2023-02-15T18:06:44.652Z,101170.53
2023-02-15T18:09:34.844Z,101159.97
2023-02-15T18:12:19.865Z,101158.50
2023-02-15T18:14:48.427Z,101162.91
2023-02-15T18:17:18.226Z,101157.66
2023-02-15T18:19:48.346Z,101153.72
2023-02-15T18:22:19.786Z,101154.53
2023-02-15T18:24:51.199Z,101164.91
2023-02-15T18:27:21.261Z,101155.53
2023-02-15T18:29:49.705Z,101152.28
2023-02-15T18:32:23.196Z,101149.78
2023-02-15T18:34:52.371Z,101137.84
2023-02-15T18:37:23.653Z,101137.66
2023-02-15T18:39:55.054Z,101151.78
2023-02-15T18:42:27.124Z,101141.44
2023-02-15T18:44:58.392Z,101145.03
2023-02-15T18:47:27.767Z,101147.84
2023-02-15T18:49:56.520Z,101145.03
2023-02-15T18:52:28.605Z,101143.56
2023-02-15T18:55:02.434Z,101152.25
2023-02-15T18:57:31.317Z,101150.59
2023-02-15T18:59:59.884Z,101151.75
2023-02-15T19:02:29.144Z,101155.34
2023-02-15T19:04:57.505Z,101159.59
2023-02-15T19:07:29.851Z,101151.09
2023-02-15T19:10:02.648Z,101155.34
2023-02-15T19:12:31.379Z,101151.09
2023-02-15T19:14:59.865Z,101152.72
2023-02-15T19:17:28.198Z,101139.63
2023-02-15T19:19:56.819Z,101135.38
2023-02-15T19:22:30.756Z,101136.19
2023-02-15T19:25:04.497Z,101132.75
2023-02-15T19:27:36.003Z,101124.88
2023-02-15T19:30:12.805Z,101122.25
2023-02-15T19:32:41.153Z,101116.34
2023-02-15T19:35:15.776Z,101113.38
2023-02-15T19:37:47.919Z,101122.75
2023-02-15T19:40:25.287Z,101118.94
2023-02-15T19:42:54.405Z,101116.00
2023-02-15T19:45:25.341Z,101122.25
2023-02-15T19:47:56.871Z,101123.22
2023-02-15T19:50:27.677Z,101123.88
2023-02-15T19:52:56.055Z,101134.38
2023-02-15T19:55:29.249Z,101130.75
2023-02-15T19:57:59.610Z,101139.44
2023-02-15T20:00:30.423Z,101136.00
2023-02-15T20:02:59.852Z,101145.34
2023-02-15T20:05:30.012Z,101138.47
2023-02-15T20:07:59.295Z,101139.28
2023-02-15T20:10:33.288Z,101143.72
2023-02-15T20:13:02.532Z,101142.72
2023-02-15T20:15:33.465Z,101147.97
2023-02-15T20:18:04.275Z,101141.91
2023-02-15T20:20:41.100Z,101141.75
2023-02-15T20:23:20.446Z,101131.44
2023-02-15T20:25:50.832Z,101133.06
2023-02-15T20:28:21.266Z,101134.06
2023-02-15T20:30:50.555Z,101143.38
2023-02-15T20:33:20.306Z,101134.06
2023-02-15T20:35:49.551Z,101133.88
2023-02-15T20:38:21.870Z,101141.75
2023-02-15T20:41:09.517Z,101130.44
2023-02-15T20:43:38.071Z,101134.06
2023-02-15T20:46:07.726Z,101134.38
2023-02-15T20:48:36.741Z,101134.38
2023-02-15T20:51:13.362Z,101133.56
2023-02-15T20:53:41.821Z,101131.56
2023-02-15T20:56:19.910Z,101141.25
2023-02-15T20:58:48.801Z,101154.22
2023-02-15T21:01:19.888Z,101146.34
2023-02-15T21:03:49.098Z,101147.31
2023-02-15T21:06:18.498Z,101143.06
2023-02-15T21:08:46.941Z,101160.41
2023-02-15T21:11:21.523Z,101151.91
2023-02-15T21:13:51.713Z,101153.53
2023-02-15T21:16:20.292Z,101164.22
2023-02-15T21:18:48.901Z,101165.84
2023-02-15T21:21:24.010Z,101153.84
2023-02-15T21:23:53.989Z,101175.50
2023-02-15T21:26:24.927Z,101166.97
2023-02-15T21:28:53.496Z,101177.47
2023-02-15T21:31:24.734Z,101175.50
2023-02-15T21:33:53.434Z,101169.44
2023-02-15T21:36:25.247Z,101172.22
2023-02-15T21:38:54.337Z,101172.22
2023-02-15T21:41:43.093Z,101168.94
2023-02-15T21:44:36.606Z,101166.63
2023-02-15T21:47:22.592Z,101166.97
2023-02-15T21:49:50.958Z,101164.47
2023-02-15T21:52:23.787Z,101162.84
2023-02-15T21:54:52.125Z,101157.59
2023-02-15T21:57:22.438Z,101154.16
2023-02-15T21:59:50.984Z,101154.16
2023-02-15T22:02:29.365Z,101161.22
2023-02-15T22:04:59.448Z,101172.69
2023-02-15T22:07:27.837Z,101156.97
2023-02-15T22:09:56.172Z,101160.53
2023-02-15T22:12:25.910Z,101168.56
2023-02-15T22:14:55.502Z,101161.03
2023-02-15T22:17:28.996Z,101150.72
2023-02-15T22:19:57.916Z,101162.31
2023-02-15T22:22:26.240Z,101163.44
2023-02-15T22:24:54.540Z,101158.38
2023-02-15T22:27:27.597Z,101153.28
2023-02-15T22:29:56.814Z,101150.84
2023-02-15T22:32:27.486Z,101154.44
2023-02-15T22:34:56.260Z,101145.09
2023-02-15T22:37:24.546Z,101147.03
2023-02-15T22:39:52.896Z,101139.50
2023-02-15T22:42:28.011Z,101139.16
2023-02-15T22:44:58.433Z,101142.44
2023-02-15T22:47:29.369Z,101146.38
2023-02-15T22:49:57.659Z,101135.38
2023-02-15T22:52:26.182Z,101135.38
2023-02-15T22:54:54.454Z,101149.28
2023-02-15T22:57:30.526Z,101146.19
2023-02-15T23:00:00.644Z,101138.44
2023-02-15T23:02:29.093Z,101141.41
2023-02-15T23:04:57.409Z,101138.94
2023-02-15T23:07:25.774Z,101143.19
2023-02-15T23:09:54.095Z,101141.56
2023-02-15T23:12:28.115Z,101140.91
2023-02-15T23:14:58.421Z,101132.38
2023-02-15T23:17:26.754Z,101143.53
2023-02-15T23:19:55.016Z,101147.28
2023-02-15T23:22:23.321Z,101128.25
2023-02-15T23:24:53.971Z,101134.47
2023-02-15T23:27:39.899Z,101130.88
2023-02-15T23:30:15.406Z,101125.94
2023-02-15T23:32:43.769Z,101127.59
2023-02-15T23:35:16.232Z,101125.94
2023-02-15T23:37:44.779Z,101121.56
2023-02-15T23:40:33.752Z,101118.94
2023-02-15T23:43:02.152Z,101123.31
2023-02-15T23:45:37.208Z,101119.91
2023-02-15T23:48:33.538Z,101121.69
2023-02-15T23:51:02.261Z,101121.88
2023-02-15T23:53:31.544Z,101115.81
2023-02-15T23:56:05.004Z,101116.94
2023-02-15T23:58:38.212Z,101112.00
